Terminal Aerodrome Forecast
Issued by NWS

Home | Current Version | Previous Version | Text Only | Print | Product List | Glossary On
Versions: 1 2 3 4 5 6 7 8 9 10 11 12 13 14 15 16 17 18 19 20 21 22 23 24 25 26 27 28 29 30 31 32 33
972
FTUS41 KOKX 251342 AAC
TAFTEB
TAF AMD
KTEB 251342Z 2514/2612 14007KT 4SM BR OVC015
     FM251600 16009KT 6SM BR OVC025
     FM251800 16010KT 6SM BR SCT008 BKN025
     FM252300 18010KT 6SM -SHRA BR SCT008 BKN025 PROB30 2523/2601
      5SM -TSRA BKN008CB
     FM260100 27013G21KT P6SM VCSH BKN015
     FM260300 30015G23KT P6SM BKN060
     FM260500 30013G21KT P6SM SCT100=

USA.gov is the U.S. government's official web portal to all federal, state and local government web resources and services.